Time,TemperatureF,DewpointF,PressureIn,WindDirection,WindDirectionDegrees,WindSpeedMPH,WindSpeedGustMPH,Humidity,HourlyPrecipIn,Conditions,Clouds,dailyrainin,SoftwareType,DateUTC
2013-01-17 00:00:00,75.4,66.9,29.99,WSW,248,2.3,3.0,75,0.00,CLR,,0.00,WeatherDisplay:10.37,2013-01-17 05:00:00,
2013-01-17 00:02:00,75.4,66.9,29.99,WSW,248,4.6,4.6,75,0.00,CLR,,0.00,WeatherDisplay:10.37,2013-01-17 05:02:00,
2013-01-17 00:03:00,75.2,66.7,29.99,South,180,4.6,4.6,75,0.00,CLR,,0.00,WeatherDisplay:10.37,2013-01-17 05:03:00,
2013-01-17 00:09:00,74.7,66.2,30.00,WSW,248,0.0,1.6,75,0.00,CLR,,0.00,WeatherDisplay:10.37,2013-01-17 05:09:00,
2013-01-17 00:14:00,74.7,66.2,30.00,SSE,158,2.3,2.3,75,0.00,CLR,,0.00,WeatherDisplay:10.37,2013-01-17 05:14:00,
2013-01-17 00:19:00,74.3,65.9,30.00,West,270,0.0,1.1,75,0.00,CLR,,0.00,WeatherDisplay:10.37,2013-01-17 05:19:00,
2013-01-17 00:24:00,73.8,65.7,30.00,SE,135,4.6,4.6,76,0.00,CLR,,0.00,WeatherDisplay:10.37,2013-01-17 05:24:00,
2013-01-17 00:29:00,73.2,65.9,30.00,West,270,3.5,3.5,78,0.00,CLR,,0.03,WeatherDisplay:10.37,2013-01-17 05:29:00,
2013-01-17 00:34:00,73.0,65.4,30.00,WSW,248,4.6,4.6,77,0.03,RA,,0.03,WeatherDisplay:10.37,2013-01-17 05:34:00,
2013-01-17 00:39:00,72.3,64.7,30.00,WNW,292,1.1,1.1,77,0.03,RA,,0.03,WeatherDisplay:10.37,2013-01-17 05:39:00,
2013-01-17 00:44:00,72.1,64.5,30.00,SSW,202,2.3,2.3,77,0.06,RA,,0.06,WeatherDisplay:10.37,2013-01-17 05:44:00,
2013-01-17 00:49:00,71.4,63.8,29.99,North,0,3.5,3.5,77,0.06,RA,,0.06,WeatherDisplay:10.37,2013-01-17 05:49:00,
2013-01-17 00:54:00,71.2,64.0,29.99,South,180,0.0,1.7,78,0.06,CLR,,0.06,WeatherDisplay:10.37,2013-01-17 05:54:00,
2013-01-17 00:59:00,71.1,63.9,29.99,WNW,292,2.3,2.3,78,0.06,CLR,,0.06,WeatherDisplay:10.37,2013-01-17 05:59:00,
2013-01-17 01:04:00,70.9,63.7,29.99,West,270,0.0,0.6,78,0.08,RA,,0.08,WeatherDisplay:10.37,2013-01-17 06:04:00,
2013-01-17 01:09:00,70.7,63.5,29.99,WNW,292,0.0,0.3,78,0.11,RA,,0.11,WeatherDisplay:10.37,2013-01-17 06:09:00,
2013-01-17 01:14:00,70.7,63.5,29.99,NE,45,1.1,1.1,78,0.11,RA,,0.11,WeatherDisplay:10.37,2013-01-17 06:14:00,
2013-01-17 01:19:00,70.3,63.5,29.99,WSW,248,0.0,0.1,79,0.14,RA,,0.14,WeatherDisplay:10.37,2013-01-17 06:19:00,
2013-01-17 01:24:00,70.3,63.5,29.99,NW,315,0.0,0.1,79,0.14,RA,,0.14,WeatherDisplay:10.37,2013-01-17 06:24:00,
2013-01-17 01:29:00,70.5,64.0,30.00,ENE,68,0.0,0.0,80,0.11,CLR,,0.14,WeatherDisplay:10.37,2013-01-17 06:29:00,
2013-01-17 01:34:00,70.7,64.2,30.00,SE,135,0.0,0.0,80,0.11,CLR,,0.14,WeatherDisplay:10.37,2013-01-17 06:34:00,
2013-01-17 01:39:00,70.7,64.2,30.00,ESE,112,0.0,0.1,80,0.11,CLR,,0.14,WeatherDisplay:10.37,2013-01-17 06:39:00,
2013-01-17 01:44:00,70.7,64.6,30.00,SSE,158,1.1,1.1,81,0.08,CLR,,0.14,WeatherDisplay:10.37,2013-01-17 06:44:00,
2013-01-17 01:49:00,70.7,64.6,30.00,ENE,68,0.0,0.3,81,0.08,CLR,,0.14,WeatherDisplay:10.37,2013-01-17 06:49:00,
2013-01-17 01:54:00,70.7,64.6,30.00,NW,315,0.0,0.0,81,0.08,CLR,,0.17,WeatherDisplay:10.37,2013-01-17 06:54:00,
2013-01-17 01:59:00,70.9,64.8,30.00,NW,315,0.0,0.0,81,0.11,RA,,0.17,WeatherDisplay:10.37,2013-01-17 06:59:00,
2013-01-17 02:04:00,70.9,64.8,30.00,South,180,0.0,0.0,81,0.08,RA,,0.17,WeatherDisplay:10.37,2013-01-17 07:04:00,
2013-01-17 02:09:00,70.9,64.8,29.99,SSE,158,3.5,3.5,81,0.06,CLR,,0.17,WeatherDisplay:10.37,2013-01-17 07:09:00,
2013-01-17 02:14:00,71.1,64.9,29.99,NE,45,0.0,0.5,81,0.06,CLR,,0.17,WeatherDisplay:10.37,2013-01-17 07:14:00,
2013-01-17 02:19:00,70.9,64.8,29.99,NNE,22,2.3,2.3,81,0.03,CLR,,0.17,WeatherDisplay:10.37,2013-01-17 07:19:00,
2013-01-17 02:24:00,70.9,64.8,29.99,NNE,22,0.0,0.2,81,0.03,CLR,,0.17,WeatherDisplay:10.37,2013-01-17 07:24:00,
2013-01-17 02:29:00,70.9,64.8,29.99,East,90,0.0,0.1,81,0.03,CLR,,0.17,WeatherDisplay:10.37,2013-01-17 07:29:00,
2013-01-17 02:34:00,71.1,64.9,29.99,SE,135,2.3,2.3,81,0.03,CLR,,0.17,WeatherDisplay:10.37,2013-01-17 07:34:00,
2013-01-17 02:39:00,70.9,64.8,29.99,ESE,112,1.1,1.1,81,0.03,CLR,,0.17,WeatherDisplay:10.37,2013-01-17 07:39:00,
2013-01-17 02:45:00,70.9,64.8,29.99,ENE,68,2.3,2.3,81,0.03,CLR,,0.17,WeatherDisplay:10.37,2013-01-17 07:45:00,
2013-01-17 02:50:00,70.9,64.8,29.99,ENE,68,0.0,0.2,81,0.03,CLR,,0.17,WeatherDisplay:10.37,2013-01-17 07:50:00,
2013-01-17 02:55:00,71.1,64.9,29.99,ENE,68,0.0,0.1,81,0.03,CLR,,0.17,WeatherDisplay:10.37,2013-01-17 07:55:00,
2013-01-17 03:00:00,71.1,64.9,29.99,ENE,68,0.0,0.0,81,0.00,CLR,,0.17,WeatherDisplay:10.37,2013-01-17 08:00:00,
2013-01-17 03:05:00,70.9,64.8,29.99,ESE,112,0.0,0.0,81,0.00,CLR,,0.17,WeatherDisplay:10.37,2013-01-17 08:05:00,
2013-01-17 03:10:00,70.9,64.8,29.98,SE,135,1.1,1.1,81,0.00,CLR,,0.17,WeatherDisplay:10.37,2013-01-17 08:10:00,
2013-01-17 03:15:00,70.9,64.8,29.98,ESE,112,1.1,1.1,81,0.00,CLR,,0.17,WeatherDisplay:10.37,2013-01-17 08:15:00,
2013-01-17 03:20:00,71.1,64.9,29.98,SSE,158,2.3,2.3,81,0.00,CLR,,0.17,WeatherDisplay:10.37,2013-01-17 08:20:00,
2013-01-17 03:25:00,71.1,64.9,29.98,ESE,112,1.1,1.4,81,0.00,CLR,,0.17,WeatherDisplay:10.37,2013-01-17 08:25:00,
2013-01-17 03:30:00,70.9,64.8,29.98,SE,135,1.1,1.1,81,0.00,CLR,,0.17,WeatherDisplay:10.37,2013-01-17 08:30:00,
2013-01-17 03:35:00,70.9,65.1,29.98,SE,135,2.3,2.3,82,0.03,RA,,0.19,WeatherDisplay:10.37,2013-01-17 08:35:00,
2013-01-17 03:40:00,70.9,65.1,29.98,SE,135,2.3,2.3,82,0.03,RA,,0.19,WeatherDisplay:10.37,2013-01-17 08:40:00,
2013-01-17 03:45:00,70.9,65.1,29.98,SE,135,3.5,3.5,82,0.03,CLR,,0.19,WeatherDisplay:10.37,2013-01-17 08:45:00,
2013-01-17 03:50:00,70.7,64.9,29.98,SE,135,1.1,1.7,82,0.03,CLR,,0.19,WeatherDisplay:10.37,2013-01-17 08:50:00,
2013-01-17 03:55:00,70.7,64.9,29.98,ESE,112,1.1,1.1,82,0.03,CLR,,0.19,WeatherDisplay:10.37,2013-01-17 08:55:00,
2013-01-17 04:00:00,70.9,65.1,29.98,ESE,112,2.3,2.3,82,0.03,CLR,,0.19,WeatherDisplay:10.37,2013-01-17 09:00:00,
2013-01-17 04:05:00,70.7,64.9,29.98,SE,135,2.3,2.3,82,0.03,CLR,,0.19,WeatherDisplay:10.37,2013-01-17 09:05:00,
2013-01-17 04:10:00,70.7,64.9,29.98,ESE,112,3.5,3.5,82,0.03,CLR,,0.19,WeatherDisplay:10.37,2013-01-17 09:10:00,
2013-01-17 04:15:00,70.7,65.3,29.98,South,180,3.5,3.5,83,0.03,CLR,,0.19,WeatherDisplay:10.37,2013-01-17 09:15:00,
2013-01-17 04:20:00,70.7,65.3,29.98,SSE,158,2.3,2.6,83,0.03,CLR,,0.19,WeatherDisplay:10.37,2013-01-17 09:20:00,
2013-01-17 04:25:00,70.7,65.3,29.98,ESE,112,2.3,2.6,83,0.03,CLR,,0.19,WeatherDisplay:10.37,2013-01-17 09:25:00,
2013-01-17 04:30:00,70.7,65.3,29.98,East,90,3.5,3.5,83,0.03,CLR,,0.19,WeatherDisplay:10.37,2013-01-17 09:30:00,
2013-01-17 04:35:00,70.7,65.3,29.98,SSE,158,3.5,3.5,83,0.00,CLR,,0.19,WeatherDisplay:10.37,2013-01-17 09:35:00,
2013-01-17 04:40:00,70.5,65.1,29.98,SE,135,6.9,6.9,83,0.00,CLR,,0.19,WeatherDisplay:10.37,2013-01-17 09:40:00,
2013-01-17 04:45:00,70.7,65.3,29.98,SE,135,2.3,3.5,83,0.00,CLR,,0.19,WeatherDisplay:10.37,2013-01-17 09:45:00,
2013-01-17 04:50:00,70.7,65.3,29.97,South,180,4.6,4.6,83,0.00,CLR,,0.19,WeatherDisplay:10.37,2013-01-17 09:50:00,
2013-01-17 04:55:00,70.7,65.3,29.97,SE,135,4.6,4.6,83,0.00,CLR,,0.19,WeatherDisplay:10.37,2013-01-17 09:55:00,
2013-01-17 05:00:00,70.5,65.1,29.97,SE,135,3.5,3.5,83,0.03,RA,,0.22,WeatherDisplay:10.37,2013-01-17 10:00:00,
2013-01-17 05:05:00,70.5,65.1,29.97,SE,135,1.1,2.3,83,0.03,RA,,0.22,WeatherDisplay:10.37,2013-01-17 10:05:00,
2013-01-17 05:10:00,70.5,65.1,29.98,ESE,112,2.3,2.3,83,0.03,CLR,,0.22,WeatherDisplay:10.37,2013-01-17 10:10:00,
2013-01-17 05:15:00,70.7,65.3,29.98,ESE,112,2.3,2.3,83,0.03,CLR,,0.22,WeatherDisplay:10.37,2013-01-17 10:15:00,
2013-01-17 05:20:00,70.7,65.3,29.98,ENE,68,2.3,2.3,83,0.06,RA,,0.25,WeatherDisplay:10.37,2013-01-17 10:20:00,
2013-01-17 05:25:00,71.1,65.6,29.98,SE,135,2.3,2.3,83,0.06,RA,,0.25,WeatherDisplay:10.37,2013-01-17 10:25:00,
2013-01-17 05:30:00,70.9,65.5,29.98,ENE,68,2.3,2.3,83,0.06,,,0.25,WeatherDisplay:10.37,2013-01-17 10:30:00,
2013-01-17 05:35:00,70.9,65.8,29.98,ESE,112,1.1,1.7,84,0.08,RA,,0.28,WeatherDisplay:10.37,2013-01-17 10:35:00,
2013-01-17 05:40:00,71.1,66.0,29.98,NNE,22,0.0,0.6,84,0.08,RA,,0.28,WeatherDisplay:10.37,2013-01-17 10:40:00,
2013-01-17 05:45:00,71.1,66.0,29.98,ENE,68,0.0,0.1,84,0.08,CLR,,0.28,WeatherDisplay:10.37,2013-01-17 10:45:00,
2013-01-17 05:50:00,71.4,66.3,29.98,NNE,22,0.0,0.0,84,0.08,CLR,,0.28,WeatherDisplay:10.37,2013-01-17 10:50:00,
2013-01-17 05:55:00,71.4,66.7,29.98,NE,45,0.0,0.0,85,0.08,CLR,,0.28,WeatherDisplay:10.37,2013-01-17 10:55:00,
2013-01-17 06:00:00,71.2,66.5,29.98,ENE,68,0.0,0.0,85,0.08,RA,,0.31,WeatherDisplay:10.37,2013-01-17 11:00:00,
2013-01-17 06:05:00,71.2,66.5,29.98,ESE,112,0.0,0.0,85,0.08,RA,,0.31,WeatherDisplay:10.37,2013-01-17 11:05:00,
2013-01-17 06:10:00,71.4,66.7,29.98,SSE,158,0.0,0.0,85,0.08,,,0.31,WeatherDisplay:10.37,2013-01-17 11:10:00,
2013-01-17 06:15:00,71.4,66.7,29.98,SE,135,4.6,4.6,85,0.08,CLR,,0.31,WeatherDisplay:10.37,2013-01-17 11:15:00,
2013-01-17 06:20:00,71.2,66.5,29.98,ESE,112,4.6,4.6,85,0.06,CLR,,0.31,WeatherDisplay:10.37,2013-01-17 11:20:00,
2013-01-17 06:25:00,71.2,66.5,29.98,SE,135,2.3,2.6,85,0.06,CLR,,0.31,WeatherDisplay:10.37,2013-01-17 11:25:00,
2013-01-17 06:31:00,71.4,66.3,29.98,SSE,158,3.5,3.5,84,0.06,CLR,,0.31,WeatherDisplay:10.37,2013-01-17 11:31:00,
2013-01-17 06:36:00,71.1,66.0,29.98,ESE,112,2.3,2.3,84,0.03,CLR,,0.31,WeatherDisplay:10.37,2013-01-17 11:36:00,
2013-01-17 06:41:00,71.1,66.0,29.98,ENE,68,0.0,1.0,84,0.03,CLR,,0.31,WeatherDisplay:10.37,2013-01-17 11:41:00,
2013-01-17 06:46:00,71.1,66.0,29.98,SSE,158,0.0,0.3,84,0.03,CLR,,0.31,WeatherDisplay:10.37,2013-01-17 11:46:00,
2013-01-17 06:51:00,70.9,65.8,29.99,ESE,112,0.0,0.0,84,0.03,CLR,,0.31,WeatherDisplay:10.37,2013-01-17 11:51:00,
2013-01-17 06:56:00,70.7,65.6,29.99,NE,45,0.0,0.0,84,0.03,CLR,,0.31,WeatherDisplay:10.37,2013-01-17 11:56:00,
2013-01-17 07:01:00,70.7,65.6,29.99,South,180,0.0,0.0,84,0.00,CLR,,0.31,WeatherDisplay:10.37,2013-01-17 12:01:00,
2013-01-17 07:06:00,70.7,65.6,29.99,ENE,68,0.0,0.0,84,0.00,CLR,,0.31,WeatherDisplay:10.37,2013-01-17 12:06:00,
2013-01-17 07:11:00,70.5,65.4,29.99,East,90,0.0,0.0,84,0.00,CLR,,0.31,WeatherDisplay:10.37,2013-01-17 12:11:00,
2013-01-17 07:16:00,70.3,65.3,29.99,ENE,68,0.0,0.0,84,0.00,CLR,,0.31,WeatherDisplay:10.37,2013-01-17 12:16:00,
2013-01-17 07:21:00,70.3,65.3,29.99,ENE,68,0.0,0.0,84,0.00,CLR,,0.31,WeatherDisplay:10.37,2013-01-17 12:21:00,
2013-01-17 07:26:00,70.2,65.1,29.99,ENE,68,0.0,0.0,84,0.00,CLR,,0.31,WeatherDisplay:10.37,2013-01-17 12:26:00,
2013-01-17 07:31:00,70.2,65.1,29.99,ENE,68,0.0,0.0,84,0.00,CLR,,0.31,WeatherDisplay:10.37,2013-01-17 12:31:00,
2013-01-17 07:36:00,70.2,65.1,29.99,SE,135,0.0,0.0,84,0.00,CLR,,0.31,WeatherDisplay:10.37,2013-01-17 12:36:00,
2013-01-17 07:41:00,70.2,65.1,29.99,South,180,0.0,0.0,84,0.00,CLR,,0.31,WeatherDisplay:10.37,2013-01-17 12:41:00,
2013-01-17 07:46:00,70.3,65.3,29.99,SSE,158,0.0,0.0,84,0.00,CLR,,0.31,WeatherDisplay:10.37,2013-01-17 12:46:00,
2013-01-17 07:51:00,70.3,65.3,30.00,ESE,112,0.0,0.0,84,0.00,CLR,,0.31,WeatherDisplay:10.37,2013-01-17 12:51:00,
2013-01-17 07:56:00,70.5,65.4,30.00,ESE,112,0.0,0.0,84,0.00,CLR,,0.31,WeatherDisplay:10.37,2013-01-17 12:56:00,
2013-01-17 08:01:00,70.5,65.4,30.00,ESE,112,0.0,0.0,84,0.00,CLR,,0.31,WeatherDisplay:10.37,2013-01-17 13:01:00,
2013-01-17 08:06:00,70.9,65.8,30.00,ESE,112,0.0,0.0,84,0.00,CLR,,0.31,WeatherDisplay:10.37,2013-01-17 13:06:00,
2013-01-17 08:11:00,70.9,66.1,30.00,ESE,112,0.0,0.0,85,0.00,CLR,,0.31,WeatherDisplay:10.37,2013-01-17 13:11:00,
2013-01-17 08:16:00,71.1,66.3,30.00,ENE,68,0.0,0.0,85,0.00,CLR,,0.31,WeatherDisplay:10.37,2013-01-17 13:16:00,
2013-01-17 08:21:00,71.2,66.5,30.00,ENE,68,0.0,0.0,85,0.00,CLR,,0.31,WeatherDisplay:10.37,2013-01-17 13:21:00,
2013-01-17 08:26:00,71.2,66.5,30.00,ENE,68,0.0,0.0,85,0.00,CLR,,0.31,WeatherDisplay:10.37,2013-01-17 13:26:00,
2013-01-17 08:31:00,71.2,66.5,30.00,ESE,112,0.0,0.0,85,0.00,CLR,,0.31,WeatherDisplay:10.37,2013-01-17 13:31:00,
2013-01-17 08:36:00,71.4,66.7,30.00,WSW,248,0.0,0.0,85,0.00,CLR,,0.31,WeatherDisplay:10.37,2013-01-17 13:36:00,
2013-01-17 08:41:00,71.8,67.0,30.00,SSW,202,0.0,0.0,85,0.00,CLR,,0.31,WeatherDisplay:10.37,2013-01-17 13:41:00,
2013-01-17 08:46:00,72.5,67.7,30.01,West,270,0.0,0.0,85,0.00,CLR,,0.31,WeatherDisplay:10.37,2013-01-17 13:46:00,
2013-01-17 08:51:00,72.7,67.9,30.01,South,180,0.0,0.0,85,0.00,CLR,,0.31,WeatherDisplay:10.37,2013-01-17 13:51:00,
2013-01-17 08:56:00,72.7,67.9,30.01,SSE,158,0.0,0.0,85,0.00,CLR,,0.31,WeatherDisplay:10.37,2013-01-17 13:56:00,
2013-01-17 09:01:00,72.7,67.9,30.01,South,180,0.0,0.0,85,0.00,CLR,,0.31,WeatherDisplay:10.37,2013-01-17 14:01:00,
2013-01-17 09:06:00,73.0,68.3,30.02,SSE,158,0.0,0.1,85,0.00,CLR,,0.31,WeatherDisplay:10.37,2013-01-17 14:06:00,
2013-01-17 09:11:00,73.4,68.6,30.02,WSW,248,0.0,0.0,85,0.00,CLR,,0.31,WeatherDisplay:10.37,2013-01-17 14:11:00,
2013-01-17 09:16:00,73.9,69.1,30.02,South,180,2.3,2.3,85,0.00,CLR,,0.31,WeatherDisplay:10.37,2013-01-17 14:16:00,
2013-01-17 09:21:00,74.1,69.3,30.02,SSE,158,2.3,2.3,85,0.00,CLR,,0.31,WeatherDisplay:10.37,2013-01-17 14:21:00,
2013-01-17 09:26:00,74.5,69.7,30.02,West,270,2.3,2.3,85,0.00,CLR,,0.31,WeatherDisplay:10.37,2013-01-17 14:26:00,
2013-01-17 09:31:00,74.5,69.3,30.02,South,180,1.1,1.1,84,0.00,CLR,,0.31,WeatherDisplay:10.37,2013-01-17 14:31:00,
2013-01-17 09:36:00,74.5,69.3,30.02,ESE,112,3.5,3.5,84,0.00,CLR,,0.31,WeatherDisplay:10.37,2013-01-17 14:36:00,
2013-01-17 09:41:00,75.0,69.9,30.02,South,180,1.1,1.1,84,0.00,CLR,,0.31,WeatherDisplay:10.37,2013-01-17 14:41:00,
2013-01-17 09:47:00,75.2,70.0,30.02,SSE,158,2.3,2.3,84,0.00,CLR,,0.31,WeatherDisplay:10.37,2013-01-17 14:47:00,
2013-01-17 09:52:00,75.4,70.2,30.02,SSE,158,2.3,2.3,84,0.00,CLR,,0.31,WeatherDisplay:10.37,2013-01-17 14:52:00,
2013-01-17 09:57:00,76.1,70.6,30.02,South,180,3.5,3.5,83,0.00,CLR,,0.31,WeatherDisplay:10.37,2013-01-17 14:57:00,
2013-01-17 10:02:00,76.3,70.4,30.02,WSW,248,0.0,2.0,82,0.00,CLR,,0.31,WeatherDisplay:10.37,2013-01-17 15:02:00,
2013-01-17 10:07:00,76.1,70.2,30.02,SSE,158,2.3,2.3,82,0.00,CLR,,0.31,WeatherDisplay:10.37,2013-01-17 15:07:00,
2013-01-17 10:12:00,75.7,69.9,30.02,NNW,338,0.0,0.3,82,0.00,CLR,,0.31,WeatherDisplay:10.37,2013-01-17 15:12:00,
2013-01-17 10:17:00,75.4,69.5,30.02,South,180,2.3,2.3,82,0.00,CLR,,0.31,WeatherDisplay:10.37,2013-01-17 15:17:00,
2013-01-17 10:22:00,75.2,69.3,30.02,South,180,0.0,0.5,82,0.00,CLR,,0.31,WeatherDisplay:10.37,2013-01-17 15:22:00,
2013-01-17 10:27:00,75.7,69.9,30.02,South,180,2.3,2.3,82,0.00,CLR,,0.31,WeatherDisplay:10.37,2013-01-17 15:27:00,
2013-01-17 10:32:00,75.9,70.0,30.02,South,180,2.3,2.3,82,0.00,CLR,,0.31,WeatherDisplay:10.37,2013-01-17 15:32:00,
2013-01-17 10:37:00,76.5,70.6,30.02,WSW,248,3.5,3.5,82,0.00,CLR,,0.31,WeatherDisplay:10.37,2013-01-17 15:37:00,
2013-01-17 10:42:00,77.0,70.7,30.02,SE,135,2.3,2.3,81,0.00,CLR,,0.31,WeatherDisplay:10.37,2013-01-17 15:42:00,
2013-01-17 10:47:00,76.8,70.2,30.01,NNW,338,2.3,2.3,80,0.00,CLR,,0.31,WeatherDisplay:10.37,2013-01-17 15:47:00,
2013-01-17 10:52:00,77.2,70.2,30.01,West,270,3.5,3.5,79,0.00,CLR,,0.31,WeatherDisplay:10.37,2013-01-17 15:52:00,
2013-01-17 10:57:00,77.4,70.0,30.01,SSE,158,3.5,3.5,78,0.00,CLR,,0.31,WeatherDisplay:10.37,2013-01-17 15:57:00,
2013-01-17 11:02:00,77.2,69.8,30.01,SW,225,3.5,3.5,78,0.00,CLR,,0.31,WeatherDisplay:10.37,2013-01-17 16:02:00,
2013-01-17 11:07:00,77.0,69.6,30.00,South,180,5.8,5.8,78,0.00,CLR,,0.31,WeatherDisplay:10.37,2013-01-17 16:07:00,
2013-01-17 11:12:00,77.2,69.8,30.00,NW,315,2.3,2.3,78,0.00,CLR,,0.31,WeatherDisplay:10.37,2013-01-17 16:12:00,
2013-01-17 11:17:00,77.9,70.5,30.00,WSW,248,4.6,4.6,78,0.00,CLR,,0.31,WeatherDisplay:10.37,2013-01-17 16:17:00,
2013-01-17 11:22:00,77.5,69.8,30.00,WSW,248,2.3,2.3,77,0.00,CLR,,0.31,WeatherDisplay:10.37,2013-01-17 16:22:00,
2013-01-17 11:27:00,77.9,70.1,29.99,WSW,248,5.8,5.8,77,0.00,CLR,,0.31,WeatherDisplay:10.37,2013-01-17 16:27:00,
2013-01-17 11:32:00,78.3,70.5,29.99,SSE,158,9.2,9.2,77,0.00,CLR,,0.31,WeatherDisplay:10.37,2013-01-17 16:32:00,
2013-01-17 11:37:00,79.3,71.1,29.99,West,270,4.6,4.6,76,0.00,CLR,,0.31,WeatherDisplay:10.37,2013-01-17 16:37:00,
2013-01-17 11:42:00,79.5,70.9,29.99,ESE,112,8.1,8.1,75,0.00,CLR,,0.31,WeatherDisplay:10.37,2013-01-17 16:42:00,
2013-01-17 11:47:00,79.7,70.7,29.99,South,180,6.9,6.9,74,0.00,CLR,,0.31,WeatherDisplay:10.37,2013-01-17 16:47:00,
2013-01-17 11:52:00,79.7,70.3,29.99,SE,135,6.9,6.9,73,0.00,CLR,,0.31,WeatherDisplay:10.37,2013-01-17 16:52:00,
2013-01-17 11:57:00,79.3,70.3,29.99,SSW,202,8.1,8.1,74,0.00,CLR,,0.31,WeatherDisplay:10.37,2013-01-17 16:57:00,
2013-01-17 12:02:00,79.0,70.0,29.99,West,270,2.3,3.6,74,0.00,CLR,,0.31,WeatherDisplay:10.37,2013-01-17 17:02:00,
2013-01-17 12:07:00,78.8,69.8,29.98,WSW,248,5.8,5.8,74,0.00,CLR,,0.31,WeatherDisplay:10.37,2013-01-17 17:07:00,
2013-01-17 12:12:00,78.8,69.8,29.98,WSW,248,5.8,5.8,74,0.00,CLR,,0.31,WeatherDisplay:10.37,2013-01-17 17:12:00,
2013-01-17 12:17:00,78.3,69.7,29.98,SW,225,4.6,4.6,75,0.00,CLR,,0.31,WeatherDisplay:10.37,2013-01-17 17:17:00,
2013-01-17 12:22:00,78.3,70.1,29.98,SSE,158,4.6,4.6,76,0.00,CLR,,0.31,WeatherDisplay:10.37,2013-01-17 17:22:00,
2013-01-17 12:27:00,78.6,70.0,29.97,SSE,158,9.2,9.2,75,0.00,CLR,,0.31,WeatherDisplay:10.37,2013-01-17 17:27:00,
2013-01-17 12:32:00,78.6,70.0,29.97,SSE,158,8.1,8.1,75,0.00,CLR,,0.31,WeatherDisplay:10.37,2013-01-17 17:32:00,
2013-01-17 12:37:00,78.3,69.7,29.97,SSE,158,9.2,9.2,75,0.00,CLR,,0.31,WeatherDisplay:10.37,2013-01-17 17:37:00,
2013-01-17 12:42:00,77.7,69.2,29.97,SSW,202,6.9,6.9,75,0.00,CLR,,0.31,WeatherDisplay:10.37,2013-01-17 17:42:00,
2013-01-17 12:47:00,77.4,68.8,29.95,SSE,158,5.8,5.8,75,0.00,CLR,,0.31,WeatherDisplay:10.37,2013-01-17 17:47:00,
2013-01-17 12:52:00,77.0,68.9,29.95,SE,135,4.6,4.6,76,0.00,CLR,,0.31,WeatherDisplay:10.37,2013-01-17 17:52:00,
2013-01-17 12:57:00,76.5,68.7,29.95,SE,135,6.9,6.9,77,0.00,CLR,,0.31,WeatherDisplay:10.37,2013-01-17 17:57:00,
2013-01-17 13:02:00,76.1,68.7,29.95,SE,135,4.6,4.6,78,0.00,CLR,,0.31,WeatherDisplay:10.37,2013-01-17 18:02:00,
2013-01-17 13:07:00,76.3,68.9,29.95,South,180,5.8,5.8,78,0.00,CLR,,0.31,WeatherDisplay:10.37,2013-01-17 18:07:00,
2013-01-17 13:12:00,76.3,69.3,29.95,SSW,202,2.3,3.1,79,0.00,CLR,,0.31,WeatherDisplay:10.37,2013-01-17 18:12:00,
2013-01-17 13:17:00,76.3,69.3,29.95,SE,135,6.9,6.9,79,0.00,CLR,,0.31,WeatherDisplay:10.37,2013-01-17 18:17:00,
2013-01-17 13:22:00,76.8,69.8,29.95,South,180,4.6,4.6,79,0.00,CLR,,0.31,WeatherDisplay:10.37,2013-01-17 18:22:00,
2013-01-17 13:27:00,77.2,70.2,29.93,South,180,5.8,5.8,79,0.00,CLR,,0.31,WeatherDisplay:10.37,2013-01-17 18:27:00,
2013-01-17 13:32:00,77.2,69.8,29.93,South,180,4.6,4.6,78,0.00,CLR,,0.31,WeatherDisplay:10.37,2013-01-17 18:32:00,
2013-01-17 13:37:00,77.2,69.8,29.93,SE,135,8.1,8.1,78,0.00,CLR,,0.31,WeatherDisplay:10.37,2013-01-17 18:37:00,
2013-01-17 13:42:00,77.0,69.2,29.93,South,180,12.7,12.7,77,0.00,CLR,,0.31,WeatherDisplay:10.37,2013-01-17 18:42:00,
2013-01-17 13:47:00,77.2,69.4,29.94,South,180,9.2,9.2,77,0.00,CLR,,0.31,WeatherDisplay:10.37,2013-01-17 18:47:00,
2013-01-17 13:52:00,76.8,69.1,29.94,SE,135,9.2,9.2,77,0.00,CLR,,0.31,WeatherDisplay:10.37,2013-01-17 18:52:00,
2013-01-17 13:57:00,77.0,69.6,29.94,SE,135,6.9,6.9,78,0.00,CLR,,0.31,WeatherDisplay:10.37,2013-01-17 18:57:00,
2013-01-17 14:02:00,77.0,69.6,29.94,South,180,2.3,3.2,78,0.00,CLR,,0.31,WeatherDisplay:10.37,2013-01-17 19:02:00,
2013-01-17 14:07:00,77.2,69.8,29.93,SW,225,4.6,4.6,78,0.00,CLR,,0.31,WeatherDisplay:10.37,2013-01-17 19:07:00,
2013-01-17 14:12:00,77.2,69.8,29.93,West,270,2.3,2.6,78,0.00,CLR,,0.31,WeatherDisplay:10.37,2013-01-17 19:12:00,
2013-01-17 14:17:00,77.2,69.8,29.93,SE,135,2.3,2.4,78,0.00,CLR,,0.31,WeatherDisplay:10.37,2013-01-17 19:17:00,
2013-01-17 14:22:00,77.2,69.4,29.93,West,270,3.5,3.5,77,0.00,CLR,,0.31,WeatherDisplay:10.37,2013-01-17 19:22:00,
2013-01-17 14:27:00,77.2,69.4,29.93,SSW,202,2.3,2.3,77,0.00,CLR,,0.31,WeatherDisplay:10.37,2013-01-17 19:27:00,
2013-01-17 14:32:00,77.2,69.4,29.93,SW,225,1.1,1.1,77,0.00,CLR,,0.31,WeatherDisplay:10.37,2013-01-17 19:32:00,
2013-01-17 14:38:00,77.2,69.0,29.93,SE,135,5.8,5.8,76,0.00,CLR,,0.31,WeatherDisplay:10.37,2013-01-17 19:38:00,
2013-01-17 14:43:00,77.5,69.4,29.93,SSE,158,3.5,3.5,76,0.00,CLR,,0.31,WeatherDisplay:10.37,2013-01-17 19:43:00,
2013-01-17 14:48:00,77.4,68.8,29.93,South,180,5.8,5.8,75,0.00,CLR,,0.31,WeatherDisplay:10.37,2013-01-17 19:48:00,
2013-01-17 14:53:00,77.4,68.8,29.93,SSE,158,4.6,4.6,75,0.00,CLR,,0.31,WeatherDisplay:10.37,2013-01-17 19:53:00,
2013-01-17 14:58:00,77.5,69.0,29.93,SE,135,3.5,3.5,75,0.00,CLR,,0.31,WeatherDisplay:10.37,2013-01-17 19:58:00,
2013-01-17 15:03:00,77.5,69.0,29.93,South,180,6.9,6.9,75,0.00,CLR,,0.31,WeatherDisplay:10.37,2013-01-17 20:03:00,
2013-01-17 15:08:00,77.7,69.2,29.93,WSW,248,6.9,6.9,75,0.00,CLR,,0.31,WeatherDisplay:10.37,2013-01-17 20:08:00,
2013-01-17 15:13:00,77.7,69.2,29.93,NE,45,4.6,4.6,75,0.00,CLR,,0.31,WeatherDisplay:10.37,2013-01-17 20:13:00,
2013-01-17 15:18:00,77.7,69.2,29.93,South,180,5.8,5.8,75,0.00,CLR,,0.31,WeatherDisplay:10.37,2013-01-17 20:18:00,
2013-01-17 15:23:00,77.5,69.0,29.93,SSW,202,2.3,2.6,75,0.00,CLR,,0.31,WeatherDisplay:10.37,2013-01-17 20:23:00,
2013-01-17 15:28:00,77.4,68.8,29.93,South,180,4.6,4.6,75,0.00,CLR,,0.31,WeatherDisplay:10.37,2013-01-17 20:28:00,
2013-01-17 15:33:00,77.4,68.8,29.93,South,180,2.3,2.3,75,0.00,CLR,,0.31,WeatherDisplay:10.37,2013-01-17 20:33:00,
2013-01-17 15:38:00,77.5,69.0,29.93,WNW,292,1.1,1.5,75,0.00,CLR,,0.31,WeatherDisplay:10.37,2013-01-17 20:38:00,
2013-01-17 15:43:00,77.5,69.0,29.93,South,180,1.1,1.3,75,0.00,CLR,,0.31,WeatherDisplay:10.37,2013-01-17 20:43:00,
2013-01-17 15:48:00,77.5,69.0,29.93,ESE,112,4.6,4.6,75,0.00,CLR,,0.31,WeatherDisplay:10.37,2013-01-17 20:48:00,
2013-01-17 15:53:00,77.4,68.4,29.93,South,180,1.1,2.3,74,0.00,CLR,,0.31,WeatherDisplay:10.37,2013-01-17 20:53:00,
2013-01-17 15:58:00,77.2,68.2,29.93,SE,135,4.6,4.6,74,0.00,CLR,,0.31,WeatherDisplay:10.37,2013-01-17 20:58:00,
2013-01-17 16:03:00,77.0,67.7,29.93,SSE,158,3.5,3.5,73,0.00,CLR,,0.31,WeatherDisplay:10.37,2013-01-17 21:03:00,
2013-01-17 16:08:00,76.8,67.5,29.93,SE,135,3.5,3.5,73,0.00,CLR,,0.31,WeatherDisplay:10.37,2013-01-17 21:08:00,
2013-01-17 16:13:00,77.2,68.2,29.93,SSE,158,2.3,2.3,74,0.00,CLR,,0.31,WeatherDisplay:10.37,2013-01-17 21:13:00,
2013-01-17 16:18:00,77.2,67.9,29.93,SSE,158,2.3,2.3,73,0.00,CLR,,0.31,WeatherDisplay:10.37,2013-01-17 21:18:00,
2013-01-17 16:23:00,77.2,67.9,29.93,SSE,158,5.8,5.8,73,0.00,CLR,,0.31,WeatherDisplay:10.37,2013-01-17 21:23:00,
2013-01-17 16:28:00,77.0,67.7,29.93,South,180,5.8,5.8,73,0.00,CLR,,0.31,WeatherDisplay:10.37,2013-01-17 21:28:00,
2013-01-17 16:33:00,76.8,67.5,29.93,SSE,158,4.6,4.6,73,0.00,CLR,,0.31,WeatherDisplay:10.37,2013-01-17 21:33:00,
2013-01-17 16:38:00,76.6,67.3,29.93,SE,135,1.1,2.6,73,0.00,CLR,,0.31,WeatherDisplay:10.37,2013-01-17 21:38:00,
2013-01-17 16:43:00,76.6,67.7,29.93,South,180,4.6,4.6,74,0.00,CLR,,0.31,WeatherDisplay:10.37,2013-01-17 21:43:00,
2013-01-17 16:48:00,76.5,67.6,29.93,South,180,1.1,2.2,74,0.00,CLR,,0.31,WeatherDisplay:10.37,2013-01-17 21:48:00,
2013-01-17 16:53:00,76.5,67.6,29.93,South,180,2.3,2.3,74,0.00,CLR,,0.31,WeatherDisplay:10.37,2013-01-17 21:53:00,
2013-01-17 16:58:00,76.3,67.4,29.93,West,270,3.5,3.5,74,0.00,CLR,,0.31,WeatherDisplay:10.37,2013-01-17 21:58:00,
2013-01-17 17:03:00,76.3,67.4,29.93,West,270,3.5,3.5,74,0.00,CLR,,0.31,WeatherDisplay:10.37,2013-01-17 22:03:00,
2013-01-17 17:08:00,76.1,67.2,29.93,WSW,248,1.1,1.1,74,0.00,CLR,,0.31,WeatherDisplay:10.37,2013-01-17 22:08:00,
2013-01-17 17:13:00,75.9,67.0,29.93,SE,135,3.5,3.5,74,0.00,CLR,,0.31,WeatherDisplay:10.37,2013-01-17 22:13:00,
2013-01-17 17:18:00,75.7,66.9,29.93,South,180,1.1,1.3,74,0.00,CLR,,0.31,WeatherDisplay:10.37,2013-01-17 22:18:00,
2013-01-17 17:23:00,75.7,66.9,29.93,SSE,158,2.3,2.3,74,0.00,CLR,,0.31,WeatherDisplay:10.37,2013-01-17 22:23:00,
2013-01-17 17:28:00,75.6,67.1,29.94,South,180,0.0,0.9,75,0.00,CLR,,0.31,WeatherDisplay:10.37,2013-01-17 22:28:00,
2013-01-17 17:33:00,75.7,67.2,29.94,South,180,1.1,1.1,75,0.00,CLR,,0.31,WeatherDisplay:10.37,2013-01-17 22:33:00,
2013-01-17 17:38:00,75.7,67.2,29.94,South,180,3.5,3.5,75,0.00,CLR,,0.31,WeatherDisplay:10.37,2013-01-17 22:38:00,
2013-01-17 17:43:00,75.4,66.9,29.94,South,180,1.1,1.1,75,0.00,CLR,,0.31,WeatherDisplay:10.37,2013-01-17 22:43:00,
2013-01-17 17:48:00,75.4,66.9,29.94,SSW,202,0.0,0.8,75,0.00,CLR,,0.31,WeatherDisplay:10.37,2013-01-17 22:48:00,
2013-01-17 17:53:00,75.4,67.3,29.94,SSE,158,1.1,1.1,76,0.00,CLR,,0.31,WeatherDisplay:10.37,2013-01-17 22:53:00,
2013-01-17 17:58:00,75.4,67.3,29.94,South,180,0.0,0.3,76,0.00,CLR,,0.31,WeatherDisplay:10.37,2013-01-17 22:58:00,
2013-01-17 18:03:00,75.0,66.9,29.94,WSW,248,0.0,0.3,76,0.00,CLR,,0.31,WeatherDisplay:10.37,2013-01-17 23:03:00,
2013-01-17 18:08:00,75.0,66.9,29.94,SSE,158,3.5,3.5,76,0.00,CLR,,0.31,WeatherDisplay:10.37,2013-01-17 23:08:00,
2013-01-17 18:13:00,74.7,66.6,29.94,SW,225,2.3,2.3,76,0.00,CLR,,0.31,WeatherDisplay:10.37,2013-01-17 23:13:00,
2013-01-17 18:18:00,74.7,66.6,29.94,NW,315,1.1,1.1,76,0.00,CLR,,0.31,WeatherDisplay:10.37,2013-01-17 23:18:00,
2013-01-17 18:23:00,74.3,66.2,29.94,NW,315,0.0,0.3,76,0.00,CLR,,0.31,WeatherDisplay:10.37,2013-01-17 23:23:00,
2013-01-17 18:28:00,74.3,66.2,29.96,NW,315,4.6,4.6,76,0.00,CLR,,0.31,WeatherDisplay:10.37,2013-01-17 23:28:00,
2013-01-17 18:33:00,73.9,65.5,29.96,SSW,202,5.8,5.8,75,0.00,CLR,,0.31,WeatherDisplay:10.37,2013-01-17 23:33:00,
2013-01-17 18:38:00,73.8,65.3,29.96,West,270,9.2,9.2,75,0.00,CLR,,0.31,WeatherDisplay:10.37,2013-01-17 23:38:00,
2013-01-17 18:43:00,73.6,64.8,29.96,WSW,248,6.9,6.9,74,0.00,CLR,,0.31,WeatherDisplay:10.37,2013-01-17 23:43:00,
2013-01-17 18:48:00,72.9,64.1,29.98,West,270,3.5,3.5,74,0.00,CLR,,0.31,WeatherDisplay:10.37,2013-01-17 23:48:00,
2013-01-17 18:53:00,72.9,64.1,29.98,NW,315,8.1,8.1,74,0.00,CLR,,0.31,WeatherDisplay:10.37,2013-01-17 23:53:00,
2013-01-17 18:58:00,72.3,63.6,29.98,NW,315,4.6,4.6,74,0.00,CLR,,0.31,WeatherDisplay:10.37,2013-01-17 23:58:00,
2013-01-17 19:03:00,72.1,63.0,29.98,WNW,292,13.8,13.8,73,0.00,CLR,,0.31,WeatherDisplay:10.37,2013-01-18 00:03:00,
2013-01-17 19:08:00,71.4,62.3,30.00,WNW,292,8.1,8.1,73,0.00,CLR,,0.31,WeatherDisplay:10.37,2013-01-18 00:08:00,
2013-01-17 19:13:00,70.7,61.6,30.00,WSW,248,8.1,8.1,73,0.00,CLR,,0.31,WeatherDisplay:10.37,2013-01-18 00:13:00,
2013-01-17 19:18:00,70.2,61.1,30.00,WNW,292,3.5,5.1,73,0.00,CLR,,0.31,WeatherDisplay:10.37,2013-01-18 00:18:00,
2013-01-17 19:23:00,70.0,60.9,30.00,NNW,338,6.9,6.9,73,0.00,CLR,,0.31,WeatherDisplay:10.37,2013-01-18 00:23:00,
2013-01-17 19:28:00,69.6,61.0,30.00,NW,315,1.1,3.1,74,0.00,CLR,,0.31,WeatherDisplay:10.37,2013-01-18 00:28:00,
2013-01-17 19:33:00,70.0,61.7,30.00,NE,45,4.6,4.6,75,0.00,CLR,,0.31,WeatherDisplay:10.37,2013-01-18 00:33:00,
2013-01-17 19:38:00,70.0,61.7,30.00,SSW,202,5.8,5.8,75,0.00,CLR,,0.31,WeatherDisplay:10.37,2013-01-18 00:38:00,
2013-01-17 19:43:00,69.6,61.0,30.00,NW,315,8.1,8.1,74,0.00,CLR,,0.31,WeatherDisplay:10.37,2013-01-18 00:43:00,
2013-01-17 19:48:00,69.4,60.8,30.01,NNW,338,2.3,3.9,74,0.00,CLR,,0.31,WeatherDisplay:10.37,2013-01-18 00:48:00,
2013-01-17 19:53:00,69.1,60.4,30.01,WNW,292,5.8,5.8,74,0.00,CLR,,0.31,WeatherDisplay:10.37,2013-01-18 00:53:00,
2013-01-17 19:59:00,68.9,60.3,30.01,WNW,292,3.5,3.5,74,0.00,CLR,,0.31,WeatherDisplay:10.37,2013-01-18 00:59:00,
2013-01-17 20:04:00,68.9,59.9,30.01,NNW,338,6.9,6.9,73,0.00,CLR,,0.31,WeatherDisplay:10.37,2013-01-18 01:04:00,
2013-01-17 20:09:00,68.4,59.0,30.02,NW,315,8.1,8.1,72,0.00,CLR,,0.31,WeatherDisplay:10.37,2013-01-18 01:09:00,
2013-01-17 20:14:00,68.5,58.8,30.02,ESE,112,5.8,5.8,71,0.00,CLR,,0.31,WeatherDisplay:10.37,2013-01-18 01:14:00,
2013-01-17 20:19:00,68.2,58.4,30.02,WSW,248,3.5,3.5,71,0.00,CLR,,0.31,WeatherDisplay:10.37,2013-01-18 01:19:00,
2013-01-17 20:24:00,67.8,58.1,30.02,West,270,6.9,6.9,71,0.00,CLR,,0.31,WeatherDisplay:10.37,2013-01-18 01:24:00,
2013-01-17 20:29:00,67.5,58.1,30.02,WNW,292,4.6,4.6,72,0.00,CLR,,0.31,WeatherDisplay:10.37,2013-01-18 01:29:00,
2013-01-17 20:34:00,67.3,57.9,30.02,WNW,292,3.5,3.5,72,0.00,CLR,,0.31,WeatherDisplay:10.37,2013-01-18 01:34:00,
2013-01-17 20:39:00,67.1,57.4,30.02,NW,315,4.6,4.6,71,0.00,CLR,,0.31,WeatherDisplay:10.37,2013-01-18 01:39:00,
2013-01-17 20:44:00,66.9,57.6,30.02,WNW,292,5.8,5.8,72,0.00,CLR,,0.31,WeatherDisplay:10.37,2013-01-18 01:44:00,
2013-01-17 20:49:00,66.7,57.4,30.02,SW,225,12.7,12.7,72,0.00,CLR,,0.31,WeatherDisplay:10.37,2013-01-18 01:49:00,
2013-01-17 20:54:00,66.6,57.3,30.02,NW,315,5.8,5.8,72,0.00,CLR,,0.31,WeatherDisplay:10.37,2013-01-18 01:54:00,
2013-01-17 20:59:00,66.4,57.1,30.02,NW,315,2.3,3.5,72,0.00,CLR,,0.31,WeatherDisplay:10.37,2013-01-18 01:59:00,
2013-01-17 21:04:00,66.4,57.1,30.02,WNW,292,3.5,3.5,72,0.00,CLR,,0.31,WeatherDisplay:10.37,2013-01-18 02:04:00,
2013-01-17 21:09:00,66.2,56.9,30.03,NNW,338,6.9,6.9,72,0.00,CLR,,0.31,WeatherDisplay:10.37,2013-01-18 02:09:00,
2013-01-17 21:14:00,66.0,56.7,30.03,NW,315,3.5,3.5,72,0.00,CLR,,0.31,WeatherDisplay:10.37,2013-01-18 02:14:00,
2013-01-17 21:19:00,65.8,56.6,30.03,NW,315,3.5,3.5,72,0.00,CLR,,0.31,WeatherDisplay:10.37,2013-01-18 02:19:00,
2013-01-17 21:24:00,66.0,56.7,30.03,WSW,248,2.3,3.0,72,0.00,CLR,,0.31,WeatherDisplay:10.37,2013-01-18 02:24:00,
2013-01-17 21:29:00,65.8,56.9,30.03,NW,315,5.8,5.8,73,0.00,CLR,,0.31,WeatherDisplay:10.37,2013-01-18 02:29:00,
2013-01-17 21:34:00,65.8,56.9,30.03,WNW,292,5.8,5.8,73,0.00,CLR,,0.31,WeatherDisplay:10.37,2013-01-18 02:34:00,
2013-01-17 21:39:00,66.0,56.7,30.03,NW,315,5.8,5.8,72,0.00,CLR,,0.31,WeatherDisplay:10.37,2013-01-18 02:39:00,
2013-01-17 21:44:00,65.7,56.4,30.03,West,270,2.3,2.6,72,0.00,CLR,,0.31,WeatherDisplay:10.37,2013-01-18 02:44:00,
2013-01-17 21:49:00,65.7,56.4,30.02,NW,315,5.8,5.8,72,0.00,CLR,,0.31,WeatherDisplay:10.37,2013-01-18 02:49:00,
2013-01-17 21:54:00,65.5,56.2,30.02,NW,315,4.6,4.6,72,0.00,CLR,,0.31,WeatherDisplay:10.37,2013-01-18 02:54:00,
2013-01-17 21:59:00,65.5,56.2,30.02,NW,315,6.9,6.9,72,0.00,CLR,,0.31,WeatherDisplay:10.37,2013-01-18 02:59:00,
2013-01-17 22:04:00,65.7,56.4,30.02,NW,315,1.1,2.3,72,0.00,CLR,,0.31,WeatherDisplay:10.37,2013-01-18 03:04:00,
2013-01-17 22:09:00,65.7,56.4,30.03,NNW,338,5.8,5.8,72,0.00,CLR,,0.31,WeatherDisplay:10.37,2013-01-18 03:09:00,
2013-01-17 22:14:00,65.5,56.2,30.03,NW,315,3.5,3.5,72,0.00,CLR,,0.31,WeatherDisplay:10.37,2013-01-18 03:14:00,
2013-01-17 22:19:00,65.7,56.4,30.03,NNW,338,5.8,5.8,72,0.00,CLR,,0.31,WeatherDisplay:10.37,2013-01-18 03:19:00,
2013-01-17 22:24:00,65.3,56.4,30.03,NW,315,3.5,3.5,73,0.00,CLR,,0.31,WeatherDisplay:10.37,2013-01-18 03:24:00,
2013-01-17 22:29:00,65.3,56.4,30.03,South,180,4.6,4.6,73,0.00,CLR,,0.31,WeatherDisplay:10.37,2013-01-18 03:29:00,
2013-01-17 22:34:00,65.1,56.2,30.03,West,270,2.3,2.5,73,0.00,CLR,,0.31,WeatherDisplay:10.37,2013-01-18 03:34:00,
2013-01-17 22:39:00,65.1,55.9,30.03,NNW,338,2.3,2.5,72,0.00,CLR,,0.31,WeatherDisplay:10.37,2013-01-18 03:39:00,
2013-01-17 22:44:00,65.1,55.9,30.03,West,270,4.6,4.6,72,0.00,CLR,,0.31,WeatherDisplay:10.37,2013-01-18 03:44:00,
2013-01-17 22:49:00,64.9,55.7,30.03,West,270,4.6,4.6,72,0.00,CLR,,0.31,WeatherDisplay:10.37,2013-01-18 03:49:00,
2013-01-17 22:54:00,64.8,55.5,30.03,NNW,338,4.6,4.6,72,0.00,CLR,,0.31,WeatherDisplay:10.37,2013-01-18 03:54:00,
2013-01-17 22:59:00,64.9,55.7,30.03,WSW,248,4.6,4.6,72,0.00,CLR,,0.31,WeatherDisplay:10.37,2013-01-18 03:59:00,
2013-01-17 23:04:00,64.8,55.5,30.03,West,270,2.3,2.4,72,0.00,CLR,,0.31,WeatherDisplay:10.37,2013-01-18 04:04:00,
2013-01-17 23:09:00,64.9,55.3,30.03,West,270,5.8,5.8,71,0.00,CLR,,0.31,WeatherDisplay:10.37,2013-01-18 04:09:00,
2013-01-17 23:14:00,64.6,55.0,30.03,SSE,158,1.1,1.8,71,0.00,CLR,,0.31,WeatherDisplay:10.37,2013-01-18 04:14:00,
2013-01-17 23:19:00,64.6,54.6,30.03,WNW,292,4.6,4.6,70,0.00,CLR,,0.31,WeatherDisplay:10.37,2013-01-18 04:19:00,
2013-01-17 23:24:00,64.6,54.6,30.03,West,270,2.3,2.3,70,0.00,CLR,,0.31,WeatherDisplay:10.37,2013-01-18 04:24:00,
2013-01-17 23:29:00,64.4,54.4,30.03,WSW,248,4.6,4.6,70,0.00,CLR,,0.31,WeatherDisplay:10.37,2013-01-18 04:29:00,
2013-01-17 23:34:00,64.4,54.4,30.03,NW,315,2.3,2.3,70,0.00,CLR,,0.31,WeatherDisplay:10.37,2013-01-18 04:34:00,
2013-01-17 23:39:00,64.2,53.8,30.03,WNW,292,3.5,3.5,69,0.00,CLR,,0.31,WeatherDisplay:10.37,2013-01-18 04:39:00,
2013-01-17 23:44:00,64.2,53.8,30.03,NW,315,2.3,3.0,69,0.00,CLR,,0.31,WeatherDisplay:10.37,2013-01-18 04:44:00,
2013-01-17 23:49:00,64.0,53.7,30.02,West,270,4.6,4.6,69,0.00,CLR,,0.31,WeatherDisplay:10.37,2013-01-18 04:49:00,
2013-01-17 23:54:00,64.0,53.7,30.02,NW,315,4.6,4.6,69,0.00,CLR,,0.31,WeatherDisplay:10.37,2013-01-18 04:54:00,
2013-01-17 23:59:00,64.2,53.4,30.02,NW,315,6.9,6.9,68,0.00,CLR,,0.31,WeatherDisplay:10.37,2013-01-18 04:59:00,